• Join FlightAware (Why Join?)
  • Login
  • US Flag 
12:36PM EDT


 

Airport Tracker/Info


-or-


 

Live Flight TrackerFlight Track Log ✈ FLG3323 ✈ 26-Apr-2013 ✈ KBOS - KMEM

Flight Track Log - Related Links

Times and Time Zones

All times are in EDT time to prevent confusion due to time zone crossing. See the FLG3323 flight status page for this flight to view local times or setup timezone preferences in your user account.

Time Position Orientation Groundspeed Altitude Reporting Facility
EDT Latitude Longitude Course Direction KTS MPH feet Rate Location/Type
04:49PM 42.3667 -70.9167 71° East 179 206 2,400  Level KA90
04:50PM 42.3869 -70.8378 71° East 227 261 4,700 1,740 Climbing Boston Center
04:51PM 42.3731 -70.7397 101° East 235 270 6,400 1,920 Climbing Boston Center
04:52PM 42.2978 -70.7250 172° South 199 229 8,600 2,340 Climbing Boston Center
04:53PM 42.2383 -70.7828 216° Southwest 201 231 11,100 1,800 Climbing Boston Center
04:54PM 42.2083 -70.8733 246° West 237 273 12,300 1,680 Climbing Boston Center
04:55PM 42.1975 -71.0025 264° West 277 319 14,500 1,920 Climbing Boston Center
04:56PM 42.2008 -71.1144 272° West 316 364 16,200 1,680 Climbing Boston Center
04:57PM 42.2025 -71.2544 271° West 332 382 17,900 1,440 Climbing Boston Center
04:58PM 42.2122 -71.3917 276° West 358 412 19,100 1,500 Climbing Boston Center
04:59PM 42.2175 -71.5233 273° West 363 418 20,900 1,560 Climbing Boston Center
05:00PM 42.2058 -71.6442 263° West 363 418 22,300 1,260 Climbing Boston Center
05:01PM 42.1817 -71.7789 256° West 370 426 23,500 1,260 Climbing Boston Center
05:02PM 42.1575 -71.9136 256° West 370 426 24,900 1,080 Climbing Boston Center
05:03PM 42.1350 -72.0536 258° West 375 432 26,000 1,020 Climbing Boston Center
05:04PM 42.1064 -72.2275 258° West 380 437 27,200 900 Climbing Boston Center
05:05PM 42.0794 -72.3731 256° West 393 452 27,800 600 Climbing Boston Center
05:06PM 42.0522 -72.5211 256° West 404 465 28,400 720 Climbing Boston Center
05:07PM 42.0250 -72.6833 257° West 409 471 29,300 900 Climbing Boston Center
05:08PM 41.9850 -72.8283 250° West 414 476 30,200 1,080 Climbing Boston Center
05:09PM 41.9117 -72.9533 232° Southwest 414 476 31,500 900 Climbing Boston Center
05:10PM 41.8442 -73.0697 232° Southwest 437 503 32,000 240 Climbing Boston Center
05:11PM 41.7725 -73.1972 233° Southwest 437 503 32,000  Level Boston Center
05:12PM 41.7114 -73.2994 231° Southwest 437 503 32,000  Level Boston Center
05:14PM 41.5403 -73.5928 232° Southwest 439 505 32,000  Level New York Center
05:15PM 41.4619 -73.7250 232° Southwest 444 511 32,000  Level New York Center
05:16PM 41.3878 -73.8544 233° Southwest 444 511 32,000  Level New York Center
05:17PM 41.3094 -73.9833 231° Southwest 451 519 32,000  Level New York Center
05:18PM 41.2331 -74.1122 232° Southwest 451 519 32,000  Level New York Center
05:19PM 41.1611 -74.2269 230° Southwest 457 526 32,000 240 Level New York Center
05:20PM 41.0822 -74.3522 230° Southwest 457 526 32,500 540 Climbing New York Center
05:21PM 41.0075 -74.4803 232° Southwest 452 520 33,100 600 Climbing New York Center
05:22PM 40.9306 -74.6053 231° Southwest 452 520 33,700 420 Climbing New York Center
05:23PM 40.8558 -74.7272 231° Southwest 452 520 34,000 120 Climbing New York Center
05:24PM 40.7847 -74.8572 234° Southwest 452 520 34,000  Level New York Center
05:25PM 40.7258 -74.9881 239° Southwest 435 501 34,000  Level New York Center
05:26PM 40.6669 -75.1211 240° Southwest 421 484 34,000  Level New York Center
05:27PM 40.6056 -75.2539 239° Southwest 421 484 34,000 -60 Level New York Center
05:28PM 40.5442 -75.3892 239° Southwest 421 484 33,900  Descending New York Center
05:29PM 40.4825 -75.5242 239° Southwest 426 490 34,000  Climbing New York Center
05:30PM 40.4208 -75.6564 239° Southwest 426 490 34,000  Level New York Center
05:31PM 40.3614 -75.7831 238° Southwest 426 490 34,000  Level New York Center
05:32PM 40.2972 -75.9169 238° Southwest 426 490 34,000  Level New York Center
05:33PM 40.2353 -76.0458 238° Southwest 431 496 34,000  Level New York Center
05:34PM 40.1664 -76.1872 238° Southwest 426 490 34,000  Level New York Center
05:35PM 40.1150 -76.3028 240° Southwest 421 484 34,000  Level New York Center
05:36PM 40.0569 -76.4283 239° Southwest 416 479 34,000  Level New York Center
05:37PM 39.9989 -76.5508 238° Southwest 410 472 34,000  Level New York Center
05:38PM 39.9408 -76.6733 238° Southwest 410 472 34,000  Level New York Center
05:39PM 39.8867 -76.7961 240° Southwest 410 472 34,000  Level New York Center
05:40PM 39.8281 -76.9181 238° Southwest 404 465 34,000  Level New York Center
05:41PM 39.7889 -76.9931 236° Southwest 407 468 34,000  Level Washington Center
05:42PM 39.7333 -77.1133 239° Southwest 402 463 34,000  Level Washington Center
05:43PM 39.6775 -77.2361 239° Southwest 402 463 34,000  Level Washington Center
05:44PM 39.6217 -77.3561 239° Southwest 397 457 34,000  Level Washington Center
05:45PM 39.5614 -77.4783 237° Southwest 397 457 34,000  Level Washington Center
05:46PM 39.5053 -77.5981 239° Southwest 397 457 34,000  Level Washington Center
05:47PM 39.4492 -77.7175 239° Southwest 397 457 34,000  Level Washington Center
05:48PM 39.3947 -77.8339 239° Southwest 397 457 34,000  Level Washington Center
05:49PM 39.3447 -77.9533 242° Southwest 392 451 34,000  Level Washington Center
05:50PM 39.2986 -78.0697 243° Southwest 381 438 34,000  Level Washington Center
05:51PM 39.2503 -78.1886 242° Southwest 381 438 34,000  Level Washington Center
05:52PM 39.2036 -78.3131 244° Southwest 381 438 34,000  Level Washington Center
05:53PM 39.1531 -78.4314 241° Southwest 381 438 34,000  Level Washington Center
05:54PM 39.1064 -78.5500 243° Southwest 381 438 34,000  Level Washington Center
05:55PM 39.0594 -78.6739 244° Southwest 381 438 34,000  Level Washington Center
05:56PM 39.0083 -78.7919 241° Southwest 381 438 34,000  Level Washington Center
05:57PM 38.9614 -78.9100 243° Southwest 381 438 34,000  Level Washington Center
05:58PM 38.9100 -79.0303 241° Southwest 381 438 34,000  Level Washington Center
05:59PM 38.8628 -79.1508 243° Southwest 381 438 34,000  Level Washington Center
06:00PM 38.8281 -79.2717 250° West 376 433 34,000  Level Washington Center
06:01PM 38.8075 -79.3958 258° West 362 417 34,000  Level Washington Center
06:02PM 38.7867 -79.5175 258° West 356 410 34,000  Level Washington Center
06:03PM 38.7617 -79.6439 256° West 361 415 34,000  Level Washington Center
06:04PM 38.7406 -79.7758 258° West 356 410 34,000  Level Washington Center
06:06PM 38.6989 -79.9794 255° West 351 404 34,000  Level Indianapolis Center
06:07PM 38.6758 -80.1006 256° West 352 405 34,000  Level Indianapolis Center
06:08PM 38.6494 -80.2442 257° West 346 398 34,000  Level Indianapolis Center
06:09PM 38.6261 -80.3656 256° West 349 402 34,000  Level Indianapolis Center
06:10PM 38.6036 -80.4864 257° West 349 402 34,000  Level Indianapolis Center
06:11PM 38.5797 -80.6078 256° West 351 404 34,000  Level Indianapolis Center
06:12PM 38.5572 -80.7297 257° West 351 404 34,000  Level Indianapolis Center
06:13PM 38.5328 -80.8533 256° West 357 411 34,000  Level Indianapolis Center
06:14PM 38.5086 -80.9758 256° West 355 409 34,000  Level Indianapolis Center
06:15PM 38.4794 -81.1236 256° West 356 410 34,000  Level Indianapolis Center
06:16PM 38.4544 -81.2475 256° West 358 412 34,000  Level Indianapolis Center
06:17PM 38.4297 -81.3733 256° West 360 414 34,000  Level Indianapolis Center
06:18PM 38.4053 -81.4992 256° West 361 415 34,000  Level Indianapolis Center
06:19PM 38.3794 -81.6244 255° West 364 419 34,000  Level Indianapolis Center
06:20PM 38.3544 -81.7497 256° West 363 418 34,000  Level Indianapolis Center
06:21PM 38.3211 -81.8731 251° West 367 422 34,000  Level Indianapolis Center
06:22PM 38.2875 -81.9958 251° West 366 421 34,000  Level Indianapolis Center
06:23PM 38.2456 -82.1444 250° West 372 428 34,000  Level Indianapolis Center
06:24PM 38.2100 -82.2675 250° West 372 428 34,000  Level Indianapolis Center
06:26PM 38.1742 -82.3911 250° West 371 427 34,000  Level Indianapolis Center
06:27PM 38.1419 -82.5075 251° West 374 430 34,000  Level Indianapolis Center
06:28PM 38.1008 -82.6514 250° West 372 428 34,000  Level Indianapolis Center
06:29PM 38.0650 -82.7742 250° West 372 428 34,000  Level Indianapolis Center
06:30PM 38.0297 -82.8986 250° West 374 430 34,000  Level Indianapolis Center
06:31PM 37.9936 -83.0217 250° West 373 429 34,000  Level Indianapolis Center
06:32PM 37.9575 -83.1456 250° West 375 432 34,000  Level Indianapolis Center
06:33PM 37.9156 -83.2892 250° West 376 433 34,000  Level Indianapolis Center
06:34PM 37.8789 -83.4111 249° West 374 430 34,000  Level Indianapolis Center
06:35PM 37.8425 -83.5347 250° West 374 430 34,000  Level Indianapolis Center
06:36PM 37.8061 -83.6578 250° West 375 432 34,000  Level Indianapolis Center
06:37PM 37.7683 -83.7806 249° West 375 432 34,000  Level Indianapolis Center
06:38PM 37.7244 -83.9253 249° West 377 434 34,000  Level Indianapolis Center
06:39PM 37.6867 -84.0478 249° West 375 432 34,000  Level Indianapolis Center
06:40PM 37.6492 -84.1731 249° West 379 436 34,000  Level Indianapolis Center
06:41PM 37.6100 -84.2967 248° West 380 437 34,000  Level Indianapolis Center
06:42PM 37.5725 -84.4225 249° West 383 441 34,000  Level Indianapolis Center
06:44PM 37.4889 -84.6925 249° West 384 442 34,000  Level Indianapolis Center
06:45PM 37.4500 -84.8175 249° West 384 442 34,000  Level Indianapolis Center
06:46PM 37.4106 -84.9411 248° West 382 440 34,000  Level Indianapolis Center
06:47PM 37.3725 -85.0672 249° West 385 443 34,000  Level Indianapolis Center
06:48PM 37.3264 -85.2122 248° West 384 442 34,000  Level Indianapolis Center
06:49PM 37.2856 -85.3364 248° West 385 443 34,000  Level Indianapolis Center
06:50PM 37.2467 -85.4619 249° West 386 444 34,000  Level Indianapolis Center
06:51PM 37.2097 -85.5778 248° West 388 447 34,000  Level Indianapolis Center
06:52PM 37.1847 -85.6628 250° West 399 459 34,000  Level Memphis Center
06:53PM 37.1414 -85.7875 246° West 399 459 34,000  Level Memphis Center
06:54PM 37.1022 -85.9147 249° West 393 452 34,000  Level Memphis Center
06:55PM 37.0647 -86.0286 248° West 399 459 34,000  Level Memphis Center
06:56PM 37.0233 -86.1556 248° West 391 450 34,000  Level Memphis Center
06:57PM 36.9817 -86.2822 248° West 396 456 34,000  Level Memphis Center
06:58PM 36.9397 -86.4089 248° West 396 456 34,000  Level Memphis Center
06:59PM 36.8894 -86.5308 243° Southwest 401 461 34,000  Level Memphis Center
07:00PM 36.8369 -86.6525 242° Southwest 406 467 34,000  Level Memphis Center
07:01PM 36.7822 -86.7742 241° Southwest 406 467 34,000  Level Memphis Center
07:02PM 36.7294 -86.8956 242° Southwest 401 461 34,000  Level Memphis Center
07:03PM 36.6764 -87.0169 241° Southwest 401 461 34,000  Level Memphis Center
07:04PM 36.6214 -87.1408 241° Southwest 401 461 34,000  Level Memphis Center
07:05PM 36.5661 -87.2644 241° Southwest 406 467 34,000  Level Memphis Center
07:06PM 36.5106 -87.3853 240° Southwest 406 467 34,000  Level Memphis Center
07:07PM 36.4514 -87.5192 241° Southwest 406 467 34,000  Level Memphis Center
07:08PM 36.3936 -87.6422 240° Southwest 412 474 34,000 -300 Level Memphis Center
07:09PM 36.3400 -87.7650 242° Southwest 412 474 33,400 -1,320 Descending Memphis Center
07:10PM 36.2842 -87.8881 241° Southwest 412 474 31,400 -2,040 Descending Memphis Center
07:11PM 36.2300 -88.0053 240° Southwest 407 468 29,400 -2,040 Descending Memphis Center
07:12PM 36.1781 -88.1225 241° Southwest 407 468 27,400 -1,920 Descending Memphis Center
07:13PM 36.1297 -88.2214 239° Southwest 399 459 25,600 -1,740 Descending Memphis Center
07:14PM 36.0753 -88.3333 239° Southwest 388 447 24,000 -840 Descending Memphis Center
07:15PM 36.0017 -88.4250 225° Southwest 383 441 24,000  Level Memphis Center
07:16PM 35.9217 -88.5167 223° Southwest 383 441 24,000  Level Memphis Center
07:17PM 35.8417 -88.6028 221° Southwest 383 441 24,000 -180 Level Memphis Center
07:18PM 35.7572 -88.6789 216° Southwest 388 447 23,700 -720 Descending Memphis Center
07:19PM 35.6747 -88.7547 217° Southwest 388 447 22,600 -1,140 Descending Memphis Center
07:20PM 35.5964 -88.8278 217° Southwest 364 419 21,500 -1,200 Descending Memphis Center
07:21PM 35.5222 -88.8981 218° Southwest 348 400 20,300 -1,140 Descending Memphis Center
07:22PM 35.4439 -88.9656 215° Southwest 343 395 19,300 -1,140 Descending Memphis Center
07:23PM 35.3486 -89.0258 207° Southwest 343 395 18,100 -1,200 Descending Memphis Center
07:24PM 35.2592 -89.0703 202° Southwest 348 400 17,000 -1,140 Descending Memphis Center
07:25PM 35.1828 -89.1300 213° Southwest 336 387 15,900 -1,560 Descending Memphis Center
07:26PM 35.1144 -89.1994 220° Southwest 336 387 13,900 -1,980 Descending Memphis Center
07:27PM 35.0567 -89.2739 227° Southwest 318 366 12,000 -1,620 Descending Memphis Center
07:28PM 35.0158 -89.3531 238° Southwest 298 343 10,700 -1,500 Descending Memphis Center
07:29PM 34.9808 -89.4269 240° Southwest 266 306 9,100 -1,620 Descending Memphis Center
07:30PM 34.9500 -89.4983 242° Southwest 248 285 7,500 -1,740 Descending Memphis Center
07:31PM 34.9233 -89.5644 244° Southwest 226 260 5,700 -1,680 Descending Memphis Center
07:32PM 34.9008 -89.6278 247° West 226 260 4,200 -1,380 Descending Memphis Center
07:33PM 34.8761 -89.7039 248° West 240 276 3,000 -720 Descending Memphis Center
07:34PM 34.8789 -89.8028 272° West 262 302 2,800 -540 Descending Memphis Center
07:35PM 34.8792 -89.8889 270° West 262 302 2,000 -420 Descending Memphis Center
07:36PM 34.9067 -89.9519 298° West 232 267 2,000 -120 Level Memphis Center
07:37PM 34.9500 -89.9667 344° North 147 169 1,800 -480 Descending KMEM
07:38PM 35.0167 -89.9667 360° North 140 161 800 -780 Descending KMEM